메인 페이지
METAR-TAF:

METAR-TAF

공항 :

두알라, 카메룬

위도: 04-00N, 경도: 009-44E, 고도: 10m

현재 날씨관측

예보는 1 시간 12분 전, 09:00시(UTC)에 발표되었습니다.
남남동4kt동남동풍과 서남서풍을 오가는
온도 25°C
습도 94%
기압 1016 hPa
시정: 1400m
고도 400ft 상공 구름 보통
고도 1200ft 상공 구름 많음
고도 1500ft 상공 구름 조금, 적란운.
뇌우, 비, 이슬비

METAR: FKKD 130900Z 15004KT 110V250 1400 TSRADZ SCT004 BKN012 FEW015CB 25/24 Q1016 TEMPO 0800 TSRADZ R30/////

시각: 11:12 (10:12 UTC)

예보

예보는 1 시간 12분 전, 09:00시(UTC)에 발표되었습니다.
예보 대상 시간: 13일 09시부터 14일 12시까지 (UTC)
여러 방향의 바람 3kt
시정: 6000m
고도 400ft 상공 구름 보통
고도 1300ft 상공 구름 많음
고도 1600ft 상공 구름 조금, 적란운.
뇌우, 약한비, 이슬비
일시적
13일 09시부터 13일 13시까지 (UTC)
시정: 2000m
뇌우, 비, 이슬비
전환 중
13일 13시부터 13일 15시까지 (UTC)
확률 40%
13일 18시부터 13일 24시까지 (UTC)
시정: 4000m
비, 이슬비,

TAF: FKKD 130900Z 1309/1412 VRB03KT 6000 -TSRADZ SCT004 BKN013 FEW016CB TEMPO 1309/1313 2000 TSRADZ BECMG 1313/1315 NSW PROB40 1318/1324 4000 RADZ

4,000개 이상의 공항 관측 자료 및 예보 (METAR 및 TAF 보고).

지도상에서 검색 가능한 기상관측소가 노란 점과 빨간 점으로 표시되어 있습니다.

기상관측소 명을 보려면 표시 위로 마우스를 이동하세요.

날씨 관측과 예보를 보려면 클릭하세요.

지도 변경 : 확대하려면 엑스 표시가 있는 녹색 버튼, 축소하려면 빼기 표시가 있는 녹색 버튼, 다음 페이지의 지도를 보려면 녹색 화살표를 클릭하세요.


METAR-TAF: